Accueil
METAR-TAF:

METAR-TAF

Aéroports :

Aéroport de Shoreham

Brighton, Angleterre

latitude: 50-50N, longitude: 000-17W, altitude: 2 m

Observation

Le bulletin a été fait il y a 15 minutes, à 16:50 UTC
Vent 25 kt de sud-ouest avec des rafales jusqu'à 36 kt
Température 18°C
Humidité 73%
Pression 1008 hPa
Visibilité 10 km ou plus
Nuages épars à une hauteur de 1800 ft

METAR: EGKA 281650Z 23025G36KT 9999 SCT018 18/13 Q1008

Heure: 18:05 (17:05 UTC)

Prévision

Le bulletin a été fait il y a 3 heures et 7 minutes, à 13:58 UTC
Prévision valable du 28 à 15 UTC au 28 à 19 UTC
Vent 20 kt de ouest/sud-ouest
Visibilité 10 km ou plus
Quelques nuages à une hauteur de 1800 ft
Temporairement
du 28 à 15 UTC au 28 à 19 UTC
Vent 22 kt de ouest/sud-ouest avec des rafales jusqu'à 32 kt

TAF: EGKA 281358Z 2815/2819 24020KT 9999 FEW018 TEMPO 2815/2819 24022G32KT

Observations et prévisions météorologiques de plus de 4000 aéroports (messages METAR et TAF).

Les stations disponibles sont représentées par des disques jaunes et rouges sur la carte.

Passer la souris dessus pour voir le nom de la station.

Cliquer dessus pour voir les observations et prévisions météorologiques.

Pour changer de carte: cliquez sur les boutons verts avec une croix noire pour zoomer, sur le bouton vert avec un tiret pour effectuer un zoom arrière, ou sur les flèches vertes pour les cartes adjacentes.


METAR-TAF: